Time;durP1;ratioP1;P1;durP2;ratioP2;P2;SDS_P1;SDS_P2;PMS_P1;PMS_P2;Temp;Humidity;BMP_temperature;BMP_pressure;BME280_temperature;BME280_humidity;BME280_pressure;Samples;Min_cycle;Max_cycle;Signal;HPM_P1;HPM_P2
2021/12/22 00:01:36;;;;;;;49.50;23.10;;;;;;;-4.77;86.01;102551.19;4941188;28;20038;-69
2021/12/22 00:04:02;;;;;;;43.35;23.50;;;;;;;-4.76;86.34;102545.28;4955778;28;20035;-71
2021/12/22 00:06:33;;;;;;;43.05;20.50;;;;;;;-4.75;86.17;102541.97;4962269;28;20030;-69
2021/12/22 00:08:59;;;;;;;55.72;23.13;;;;;;;-4.76;86.39;102545.28;4958863;28;20414;-70
2021/12/22 00:11:25;;;;;;;46.08;22.48;;;;;;;-4.78;86.03;102545.19;4949078;28;20081;-69
2021/12/22 00:13:52;;;;;;;42.67;21.73;;;;;;;-4.80;86.13;102546.72;4963663;28;20031;-69
2021/12/22 00:16:17;;;;;;;48.53;22.65;;;;;;;-4.83;86.02;102543.91;4930676;28;20034;-70
2021/12/22 00:18:43;;;;;;;40.45;21.70;;;;;;;-4.87;85.87;102547.91;4963832;28;20089;-70
2021/12/22 00:21:09;;;;;;;50.25;23.50;;;;;;;-4.89;85.35;102562.22;4952743;28;20194;-70
2021/12/22 00:23:35;;;;;;;43.50;22.17;;;;;;;-4.96;85.05;102557.41;4934323;28;20130;-70
2021/12/22 00:26:00;;;;;;;43.13;23.38;;;;;;;-5.00;85.18;102563.03;4928865;28;20041;-70
2021/12/22 00:28:26;;;;;;;40.90;20.88;;;;;;;-5.00;85.18;102562.16;4965637;28;20054;-70
2021/12/22 00:30:52;;;;;;;36.28;20.10;;;;;;;-5.00;85.65;102555.38;4917613;28;20066;-70
2021/12/22 00:33:19;;;;;;;42.90;23.65;;;;;;;-5.00;86.05;102557.94;4970647;28;20069;-69
2021/12/22 00:35:45;;;;;;;41.85;20.20;;;;;;;-4.97;86.52;102558.19;4935869;28;20070;-71
2021/12/22 00:38:20;;;;;;;46.58;24.02;;;;;;;-4.96;86.30;102554.84;4950644;28;20035;-70
2021/12/22 00:40:47;;;;;;;38.13;20.92;;;;;;;-4.94;87.05;102549.84;4983362;28;20030;-70
2021/12/22 00:43:14;;;;;;;47.38;23.58;;;;;;;-4.96;86.76;102543.72;4984379;28;20027;-70
2021/12/22 00:45:40;;;;;;;45.33;22.67;;;;;;;-4.98;86.37;102543.63;4969403;28;20062;-70
2021/12/22 00:48:07;;;;;;;53.53;24.17;;;;;;;-4.98;86.30;102546.16;4939087;28;20101;-70
2021/12/22 00:50:35;;;;;;;46.70;22.67;;;;;;;-5.01;86.29;102540.81;4961917;28;20041;-69
2021/12/22 00:53:01;;;;;;;40.20;19.55;;;;;;;-5.02;86.10;102546.69;4983443;28;20039;-70
2021/12/22 00:55:27;;;;;;;47.30;23.10;;;;;;;-5.02;86.27;102553.50;4936219;28;20030;-70
2021/12/22 00:57:53;;;;;;;48.28;22.52;;;;;;;-4.99;87.30;102546.06;4938977;28;20073;-69
2021/12/22 01:00:21;;;;;;;43.35;21.20;;;;;;;-4.97;87.05;102550.53;4963324;28;20436;-70
2021/12/22 01:02:47;;;;;;;42.90;21.25;;;;;;;-4.98;87.04;102550.41;4985883;28;20534;-70
2021/12/22 01:05:15;;;;;;;43.30;22.67;;;;;;;-5.00;87.24;102551.94;4955573;28;20035;-70
2021/12/22 01:07:43;;;;;;;56.72;24.35;;;;;;;-5.01;87.38;102548.50;4925476;28;20546;-70
2021/12/22 01:10:09;;;;;;;45.90;22.58;;;;;;;-5.02;86.79;102556.03;4965334;28;20164;-70
2021/12/22 01:12:35;;;;;;;45.13;21.50;;;;;;;-5.07;86.81;102553.09;4958670;28;20034;-71
2021/12/22 01:15:01;;;;;;;46.42;21.58;;;;;;;-5.11;86.13;102558.78;4949068;28;20562;-70
2021/12/22 01:17:34;;;;;;;49.38;22.65;;;;;;;-5.13;86.05;102560.28;4953238;28;20467;-70
2021/12/22 01:20:07;;;;;;;44.75;22.73;;;;;;;-5.17;86.48;102555.69;4935617;29;20027;-69
2021/12/22 01:25:02;;;;;;;51.42;22.33;;;;;;;-5.20;87.06;102553.81;4960034;28;20057;-69
2021/12/22 01:27:34;;;;;;;41.03;22.00;;;;;;;-5.23;86.58;102559.56;4953193;28;20035;-70
2021/12/22 01:30:02;;;;;;;42.58;21.45;;;;;;;-5.25;86.30;102558.53;4948635;28;20034;-69
2021/12/22 01:32:27;;;;;;;42.47;20.58;;;;;;;-5.27;86.53;102544.75;4985378;28;20037;-69
2021/12/22 01:34:53;;;;;;;42.22;20.20;;;;;;;-5.28;86.26;102554.88;4968964;28;20035;-70
2021/12/22 01:37:18;;;;;;;42.83;19.13;;;;;;;-5.28;86.47;102547.19;4957364;28;20053;-71
2021/12/22 01:39:44;;;;;;;45.50;23.17;;;;;;;-5.32;86.54;102543.47;4954241;28;20064;-70
2021/12/22 01:42:09;;;;;;;41.25;20.50;;;;;;;-5.35;86.50;102543.25;4937419;28;20031;-69
2021/12/22 01:45:01;;;;;;;44.63;20.75;;;;;;;-5.34;86.21;102549.22;4954410;28;20027;-70
2021/12/22 01:50:16;;;;;;;42.72;22.25;;;;;;;-5.38;86.32;102543.00;4967764;28;20045;-73
2021/12/22 01:52:42;;;;;;;49.85;20.42;;;;;;;-5.39;86.21;102548.88;4982125;28;20038;-72
2021/12/22 01:55:24;;;;;;;45.30;22.00;;;;;;;-5.39;86.24;102553.97;4955216;28;20109;-72
2021/12/22 01:57:51;;;;;;;44.15;21.42;;;;;;;-5.38;86.61;102548.13;4955958;28;20046;-73
2021/12/22 02:00:20;;;;;;;43.20;21.95;;;;;;;-5.39;86.38;102541.22;4954286;28;20106;-72
2021/12/22 02:02:46;;;;;;;43.42;20.50;;;;;;;-5.40;86.05;102539.44;4954291;28;20053;-73
2021/12/22 02:05:11;;;;;;;42.45;19.73;;;;;;;-5.42;86.48;102544.41;4950198;28;20479;-73
2021/12/22 02:07:37;;;;;;;40.88;18.23;;;;;;;-5.44;85.57;102545.06;4984799;28;20038;-73
2021/12/22 02:12:34;;;;;;;50.08;20.17;;;;;;;-5.45;86.43;102541.59;4983440;28;20030;-73
2021/12/22 02:15:09;;;;;;;37.60;19.08;;;;;;;-5.39;86.76;102551.44;4940504;28;20046;-73
2021/12/22 02:17:39;;;;;;;55.50;23.70;;;;;;;-5.33;86.86;102551.03;4977366;28;20394;-72
2021/12/22 02:20:06;;;;;;;44.50;22.15;;;;;;;-5.30;87.37;102554.75;4956767;28;20039;-71
2021/12/22 02:22:32;;;;;;;65.28;20.02;;;;;;;-5.27;86.84;102552.44;4966948;28;20034;-72
2021/12/22 02:25:03;;;;;;;40.30;20.30;;;;;;;-5.18;87.17;102562.50;4952872;28;20034;-72
2021/12/22 02:27:45;;;;;;;45.83;21.02;;;;;;;-5.17;87.04;102555.69;4970377;28;20058;-72
2021/12/22 02:30:17;;;;;;;46.05;23.25;;;;;;;-5.14;87.28;102561.97;4934400;29;20035;-71
2021/12/22 02:35:41;;;;;;;39.20;18.58;;;;;;;-5.13;86.56;102560.28;4956088;28;20133;-71
2021/12/22 02:38:15;;;;;;;42.78;19.38;;;;;;;-5.15;86.76;102552.50;4979208;28;20447;-72
2021/12/22 02:40:43;;;;;;;45.78;19.95;;;;;;;-5.14;87.14;102553.38;4965045;28;20122;-72
2021/12/22 02:43:11;;;;;;;33.67;18.27;;;;;;;-5.11;86.28;102551.09;4948976;28;21222;-72
2021/12/22 02:45:39;;;;;;;38.38;19.77;;;;;;;-5.13;86.29;102544.94;4934340;28;20051;-73
2021/12/22 02:48:08;;;;;;;42.10;19.63;;;;;;;-5.13;86.18;102540.75;4942682;28;20402;-72
2021/12/22 02:50:36;;;;;;;37.30;17.65;;;;;;;-5.15;86.00;102537.16;4969018;28;20049;-72
2021/12/22 02:53:09;;;;;;;41.85;19.48;;;;;;;-5.11;86.41;102544.31;4977598;28;20034;-73
2021/12/22 02:55:58;;;;;;;49.50;22.40;;;;;;;-5.12;87.23;102533.97;4952197;28;20019;-72
2021/12/22 03:04:05;;;;;;;50.85;23.30;;;;;;;-5.15;85.93;102538.84;4965075;28;20048;-72
2021/12/22 03:06:07;;;;;;;36.70;22.33;;;;;;;-5.16;86.06;102534.50;4956842;28;20034;-72
2021/12/22 03:08:33;;;;;;;32.97;18.13;;;;;;;-5.16;86.44;102544.72;4954900;28;20122;-73
2021/12/22 03:10:58;;;;;;;35.97;17.42;;;;;;;-5.20;86.06;102547.78;4963732;28;20114;-73
2021/12/22 03:13:24;;;;;;;34.30;17.83;;;;;;;-5.25;85.78;102555.09;4948646;28;20027;-73
2021/12/22 03:15:50;;;;;;;39.97;21.15;;;;;;;-5.32;85.17;102553.69;4947523;28;20037;-73
2021/12/22 03:18:17;;;;;;;46.00;19.92;;;;;;;-5.36;84.73;102556.78;4968957;28;20031;-73
2021/12/22 03:20:46;;;;;;;48.55;21.55;;;;;;;-5.37;84.63;102560.13;4982597;28;20054;-73
2021/12/22 03:23:12;;;;;;;50.45;20.50;;;;;;;-5.42;85.09;102556.28;4937119;28;20023;-73
2021/12/22 03:25:40;;;;;;;47.42;23.92;;;;;;;-5.43;85.70;102557.97;4950222;28;20023;-73
2021/12/22 03:28:05;;;;;;;47.10;22.73;;;;;;;-5.44;85.40;102563.84;4949675;28;20018;-73
2021/12/22 03:30:31;;;;;;;46.47;22.40;;;;;;;-5.42;85.18;102566.50;4964996;28;20098;-73
2021/12/22 03:32:59;;;;;;;48.33;24.75;;;;;;;-5.40;86.13;102571.00;4947787;28;20043;-70
2021/12/22 03:35:25;;;;;;;54.70;26.27;;;;;;;-5.43;85.96;102564.72;4950452;28;20026;-70
2021/12/22 03:37:55;;;;;;;48.85;23.30;;;;;;;-5.44;85.19;102565.50;4935445;28;20467;-70
2021/12/22 03:40:25;;;;;;;48.03;20.60;;;;;;;-5.45;86.07;102564.59;4954902;28;20041;-69
2021/12/22 03:42:50;;;;;;;45.38;22.25;;;;;;;-5.47;86.48;102560.16;4949981;28;21811;-68
2021/12/22 03:45:17;;;;;;;49.75;22.20;;;;;;;-5.49;86.44;102559.13;4939141;28;20430;-68
2021/12/22 03:47:43;;;;;;;48.13;24.52;;;;;;;-5.51;86.31;102553.00;4962458;28;20031;-69
2021/12/22 03:50:10;;;;;;;46.40;21.95;;;;;;;-5.54;85.82;102555.31;4937263;28;20364;-69
2021/12/22 03:52:36;;;;;;;47.75;21.67;;;;;;;-5.52;86.68;102553.78;4943532;28;20458;-69
2021/12/22 03:55:05;;;;;;;48.83;21.63;;;;;;;-5.55;86.74;102559.53;4981818;28;20054;-70
2021/12/22 03:57:30;;;;;;;41.50;20.75;;;;;;;-5.53;86.67;102557.09;4967657;28;20045;-70
2021/12/22 03:59:58;;;;;;;43.08;19.95;;;;;;;-5.57;87.05;102559.41;4951823;28;20390;-69
2021/12/22 04:02:26;;;;;;;44.85;20.77;;;;;;;-5.57;86.54;102550.84;4933567;28;20031;-70
2021/12/22 04:04:56;;;;;;;51.55;21.05;;;;;;;-5.56;87.38;102547.50;4948650;28;20142;-70
2021/12/22 04:07:21;;;;;;;36.95;20.23;;;;;;;-5.57;87.09;102546.63;4948771;28;20158;-70
2021/12/22 04:09:47;;;;;;;41.55;20.58;;;;;;;-5.54;87.41;102560.44;4964224;28;20540;-70
2021/12/22 04:12:13;;;;;;;42.17;21.08;;;;;;;-5.54;87.69;102547.66;4948002;28;20050;-69
2021/12/22 04:14:38;;;;;;;46.97;22.95;;;;;;;-5.55;87.50;102546.75;4952130;28;20042;-70
2021/12/22 04:17:04;;;;;;;43.60;21.10;;;;;;;-5.54;88.13;102551.09;4982842;28;20050;-70
2021/12/22 04:19:32;;;;;;;41.15;19.25;;;;;;;-5.54;87.93;102550.22;4936339;28;20034;-69
2021/12/22 04:21:57;;;;;;;35.78;20.92;;;;;;;-5.59;87.99;102547.25;4954325;28;20039;-69
2021/12/22 04:24:23;;;;;;;41.63;21.67;;;;;;;-5.61;87.76;102543.69;4935194;28;20038;-68
2021/12/22 04:26:51;;;;;;;36.72;18.73;;;;;;;-5.62;87.77;102540.22;4947246;28;20042;-69
2021/12/22 04:29:18;;;;;;;46.85;20.42;;;;;;;-5.64;87.64;102544.34;4966861;28;20046;-70
2021/12/22 04:31:44;;;;;;;41.83;20.17;;;;;;;-5.65;87.21;102542.53;4941116;28;20133;-72
2021/12/22 04:34:12;;;;;;;40.78;20.30;;;;;;;-5.66;87.16;102533.13;4939814;28;20118;-72
2021/12/22 04:36:40;;;;;;;44.15;20.38;;;;;;;-5.66;87.82;102540.78;4967725;28;20037;-72
2021/12/22 04:39:07;;;;;;;35.05;19.65;;;;;;;-5.66;87.19;102532.22;4951137;28;20097;-72
2021/12/22 04:41:33;;;;;;;41.85;19.40;;;;;;;-5.62;87.43;102531.69;4969465;28;20033;-72
2021/12/22 04:43:59;;;;;;;38.85;19.42;;;;;;;-5.64;87.27;102529.00;4936885;28;20410;-73
2021/12/22 04:46:24;;;;;;;49.47;19.40;;;;;;;-5.64;87.55;102529.00;4954674;28;20411;-71
2021/12/22 04:48:50;;;;;;;32.22;18.58;;;;;;;-5.65;87.54;102526.34;4961755;28;20038;-67
2021/12/22 04:51:25;;;;;;;47.47;19.92;;;;;;;-5.68;86.87;102524.44;4943699;28;20106;-67
2021/12/22 04:54:47;;;;;;;37.17;20.52;;;;;;;-5.68;86.99;102521.00;4958796;28;20046;-67
2021/12/22 04:56:39;;;;;;;38.65;18.17;;;;;;;-5.66;86.87;102516.88;4932024;28;20030;-69
2021/12/22 04:59:05;;;;;;;39.15;21.38;;;;;;;-5.67;87.14;102520.22;4938787;28;20034;-68
2021/12/22 05:01:31;;;;;;;50.75;17.73;;;;;;;-5.69;87.42;102520.06;4939143;28;20064;-69
2021/12/22 05:03:56;;;;;;;34.22;17.95;;;;;;;-5.66;87.41;102524.53;4937782;28;20070;-69
2021/12/22 05:06:24;;;;;;;42.33;19.27;;;;;;;-5.65;87.96;102514.44;4948971;28;20045;-68
2021/12/22 05:08:50;;;;;;;57.80;23.38;;;;;;;-5.63;89.43;102517.13;4939237;28;20081;-68
2021/12/22 05:11:15;;;;;;;53.15;21.20;;;;;;;-5.62;89.72;102512.13;4969982;28;20046;-72
2021/12/22 05:13:41;;;;;;;43.67;21.73;;;;;;;-5.58;90.05;102516.72;4985892;28;20037;-72
2021/12/22 05:16:06;;;;;;;42.42;20.20;;;;;;;-5.55;90.02;102512.66;4953531;28;20065;-72
2021/12/22 05:19:14;;;;;;;42.28;20.60;;;;;;;-5.55;89.39;102507.53;4980247;28;20494;-69
2021/12/22 05:21:22;;;;;;;37.88;21.75;;;;;;;-5.57;89.64;102513.41;4935185;28;20407;-69
2021/12/22 05:23:51;;;;;;;51.25;21.33;;;;;;;-5.57;89.64;102515.09;4955263;28;20045;-74
2021/12/22 05:26:18;;;;;;;51.95;22.10;;;;;;;-5.55;89.86;102517.75;4969651;28;20031;-72
2021/12/22 05:28:47;;;;;;;42.47;20.73;;;;;;;-5.53;89.63;102513.66;4977934;28;20050;-73
2021/12/22 05:31:14;;;;;;;45.78;22.25;;;;;;;-5.51;89.77;102510.47;4953437;28;20051;-73
2021/12/22 05:33:40;;;;;;;42.75;19.52;;;;;;;-5.49;89.85;102513.13;4957084;28;20033;-73
2021/12/22 05:36:05;;;;;;;36.33;20.77;;;;;;;-5.49;90.21;102508.03;4931025;29;20111;-72
2021/12/22 05:38:34;;;;;;;41.33;20.45;;;;;;;-5.50;89.09;102503.69;4952302;28;20023;-72
2021/12/22 05:40:59;;;;;;;47.75;19.83;;;;;;;-5.49;90.23;102497.81;4986581;28;20035;-73
2021/12/22 05:43:25;;;;;;;42.25;20.60;;;;;;;-5.50;89.75;102501.13;4938954;28;20030;-73
2021/12/22 05:45:50;;;;;;;49.22;20.60;;;;;;;-5.50;89.87;102501.13;4918685;28;20555;-72
2021/12/22 05:48:16;;;;;;;34.80;19.33;;;;;;;-5.50;89.73;102496.94;4937532;28;20034;-72
2021/12/22 05:50:46;;;;;;;33.60;18.70;;;;;;;-5.49;89.60;102487.59;4940081;28;20035;-73
2021/12/22 05:53:12;;;;;;;36.72;17.90;;;;;;;-5.48;89.26;102494.50;4921896;28;20027;-72
2021/12/22 05:55:39;;;;;;;45.85;19.85;;;;;;;-5.49;89.19;102487.59;4966725;28;20030;-73
2021/12/22 05:58:05;;;;;;;42.15;19.08;;;;;;;-5.50;89.45;102485.78;4938170;28;20121;-72
2021/12/22 06:00:30;;;;;;;32.42;18.67;;;;;;;-5.48;89.52;102489.38;4937137;28;20134;-72
2021/12/22 06:02:57;;;;;;;34.65;17.98;;;;;;;-5.49;89.56;102492.69;4938432;28;20497;-73
2021/12/22 06:05:22;;;;;;;32.33;19.27;;;;;;;-5.50;89.61;102485.78;4934120;28;20071;-72
2021/12/22 06:07:48;;;;;;;34.95;18.17;;;;;;;-5.46;90.04;102487.84;4952951;28;20514;-72
2021/12/22 06:10:14;;;;;;;37.00;17.95;;;;;;;-5.45;89.87;102492.19;4958898;28;20513;-72
2021/12/22 06:12:40;;;;;;;29.42;17.00;;;;;;;-5.47;90.47;102483.50;4953553;28;20027;-72
2021/12/22 06:15:06;;;;;;;37.17;17.17;;;;;;;-5.46;90.27;102495.50;4958949;28;20035;-72
2021/12/22 06:17:31;;;;;;;31.60;16.73;;;;;;;-5.47;89.84;102489.50;4921332;28;20034;-72
2021/12/22 06:19:57;;;;;;;26.08;15.68;;;;;;;-5.46;89.75;102495.50;4962456;28;20348;-71
2021/12/22 06:22:23;;;;;;;29.27;15.82;;;;;;;-5.46;89.75;102493.84;4966187;28;20509;-72
2021/12/22 06:24:49;;;;;;;30.08;15.90;;;;;;;-5.47;89.54;102492.06;4955996;28;20030;-72
2021/12/22 06:27:19;;;;;;;35.05;15.48;;;;;;;-5.45;89.72;102500.72;4952180;28;20042;-73
2021/12/22 06:29:44;;;;;;;32.97;16.48;;;;;;;-5.45;89.52;102500.72;4936859;28;20043;-72
2021/12/22 06:32:10;;;;;;;36.45;17.33;;;;;;;-5.44;89.72;102497.41;4966483;28;20046;-72
2021/12/22 06:34:35;;;;;;;102.70;39.67;;;;;;;-5.47;90.33;102493.75;4937443;28;20407;-71
2021/12/22 06:37:01;;;;;;;122.40;41.67;;;;;;;-5.48;89.79;102489.38;4967970;28;20529;-71
2021/12/22 06:39:27;;;;;;;121.90;41.80;;;;;;;-5.49;89.01;102487.59;4931801;28;20094;-71
2021/12/22 06:41:54;;;;;;;253.85;87.22;;;;;;;-5.49;89.53;102487.59;4952348;28;20050;-72
2021/12/22 06:44:23;;;;;;;218.15;71.47;;;;;;;-5.47;89.28;102499.72;4937345;28;20031;-72
2021/12/22 06:46:51;;;;;;;116.97;44.10;;;;;;;-5.47;89.28;102507.38;4952428;28;20201;-72
2021/12/22 06:49:16;;;;;;;53.65;24.02;;;;;;;-5.45;89.57;102510.06;4963060;28;20125;-71
2021/12/22 06:51:42;;;;;;;44.53;22.13;;;;;;;-5.48;89.41;102508.16;4936111;28;20174;-71
2021/12/22 06:54:07;;;;;;;30.80;17.63;;;;;;;-5.48;89.72;102504.72;4961519;28;20050;-72
2021/12/22 06:56:33;;;;;;;44.35;23.00;;;;;;;-5.45;89.66;102508.38;4956237;28;20455;-71
2021/12/22 06:59:01;;;;;;;40.60;19.60;;;;;;;-5.47;89.17;102514.19;4981881;28;20027;-71
2021/12/22 07:01:31;;;;;;;85.50;34.63;;;;;;;-5.47;89.75;102512.50;4985679;28;20157;-72
2021/12/22 07:03:56;;;;;;;128.45;49.75;;;;;;;-5.48;89.91;102514.94;4953605;28;20018;-73
2021/12/22 07:06:22;;;;;;;358.20;137.15;;;;;;;-5.49;90.07;102518.25;4948514;28;20086;-73
2021/12/22 07:08:52;;;;;;;91.07;40.67;;;;;;;-5.50;89.57;102522.47;4918892;28;20031;-72
2021/12/22 07:11:20;;;;;;;33.35;16.30;;;;;;;-5.56;88.92;102521.97;4936748;28;20502;-72
2021/12/22 07:13:45;;;;;;;52.00;17.60;;;;;;;-5.60;88.31;102510.63;4952563;28;20026;-72
2021/12/22 07:16:13;;;;;;;32.72;16.27;;;;;;;-5.61;88.83;102511.38;4953813;28;20732;-72
2021/12/22 07:18:38;;;;;;;28.65;15.27;;;;;;;-5.62;89.33;102506.16;4934380;28;20085;-72
2021/12/22 07:21:04;;;;;;;23.27;13.80;;;;;;;-5.64;88.40;102502.59;4936680;28;20038;-72
2021/12/22 07:23:29;;;;;;;29.77;15.40;;;;;;;-5.64;88.43;102497.47;4934614;28;20575;-72
2021/12/22 07:25:55;;;;;;;30.13;13.77;;;;;;;-5.64;88.31;102492.38;4937277;28;20101;-72
2021/12/22 07:28:20;;;;;;;37.47;16.20;;;;;;;-5.65;88.47;102488.91;4920468;28;20101;-71
2021/12/22 07:30:46;;;;;;;30.88;15.23;;;;;;;-5.65;88.71;102493.13;4951509;28;20491;-71
2021/12/22 07:33:11;;;;;;;24.52;15.60;;;;;;;-5.64;88.30;102493.25;4938617;28;20039;-71
2021/12/22 07:35:38;;;;;;;29.25;13.43;;;;;;;-5.64;88.63;102498.38;4952794;28;20471;-71
2021/12/22 07:38:30;;;;;;;35.67;16.15;;;;;;;-5.64;88.38;102503.47;4976418;28;20038;-71
2021/12/22 07:40:56;;;;;;;23.42;13.90;;;;;;;-5.66;88.54;102507.59;4982349;28;20502;-71
2021/12/22 07:43:22;;;;;;;28.23;13.32;;;;;;;-5.66;88.10;102506.66;4947137;28;20027;-71
2021/12/22 07:45:48;;;;;;;24.20;13.13;;;;;;;-5.67;88.60;102510.91;4951954;28;20046;-71
2021/12/22 07:48:14;;;;;;;29.67;14.27;;;;;;;-5.66;88.19;102505.03;4964701;28;20031;-72
2021/12/22 07:50:39;;;;;;;25.02;13.90;;;;;;;-5.64;88.06;102506.03;4938812;28;20495;-71
2021/12/22 07:53:05;;;;;;;33.78;16.83;;;;;;;-5.62;87.93;102494.25;4967534;28;20069;-72
2021/12/22 07:55:33;;;;;;;23.45;13.82;;;;;;;-5.60;88.13;102500.41;4941576;28;20041;-72
2021/12/22 07:57:59;;;;;;;29.02;15.82;;;;;;;-5.57;88.57;102502.31;4954730;28;20027;-72
2021/12/22 08:00:32;;;;;;;30.15;15.32;;;;;;;-5.51;88.89;102499.38;4956747;28;20026;-72
2021/12/22 08:02:57;;;;;;;29.33;15.02;;;;;;;-5.48;88.68;102497.06;4953441;28;20085;-73
2021/12/22 08:05:26;;;;;;;29.20;15.98;;;;;;;-5.46;88.22;102490.38;4951571;28;20035;-72
2021/12/22 08:07:52;;;;;;;42.65;20.42;;;;;;;-5.43;88.66;102488.06;4939989;28;20201;-72
2021/12/22 08:10:18;;;;;;;36.15;19.20;;;;;;;-5.39;88.68;102487.53;4956680;28;20034;-72
2021/12/22 08:12:43;;;;;;;37.83;20.67;;;;;;;-5.33;89.09;102482.94;4971112;28;20368;-72
2021/12/22 08:15:28;;;;;;;38.50;20.90;;;;;;;-5.29;89.17;102489.19;4942280;28;20042;-72
2021/12/22 08:17:54;;;;;;;72.75;32.53;;;;;;;-5.28;88.45;102489.28;4956880;28;20034;-70
2021/12/22 08:20:21;;;;;;;39.45;20.90;;;;;;;-5.27;88.91;102491.09;4956000;28;20030;-69
2021/12/22 08:22:47;;;;;;;43.20;22.30;;;;;;;-5.23;88.56;102484.53;4935537;28;20062;-69
2021/12/22 08:25:15;;;;;;;31.83;17.77;;;;;;;-5.17;88.86;102487.59;4969175;28;20463;-69
2021/12/22 08:27:44;;;;;;;30.27;16.02;;;;;;;-5.10;88.71;102484.75;4939952;28;20484;-69
2021/12/22 08:30:34;;;;;;;26.13;16.33;;;;;;;-5.01;88.54;102489.69;4969739;28;20146;-69
2021/12/22 08:33:04;;;;;;;42.35;19.17;;;;;;;-4.90;88.55;102482.84;4950940;28;20037;-70
2021/12/22 08:35:30;;;;;;;28.23;15.50;;;;;;;-4.83;87.77;102487.66;4911140;28;20031;-69
2021/12/22 08:40:40;;;;;;;26.42;16.05;;;;;;;-4.69;87.35;102488.72;4958099;28;20045;-69
2021/12/22 08:43:08;;;;;;;30.27;15.13;;;;;;;-4.63;87.25;102489.19;4938792;28;20130;-69
2021/12/22 08:45:34;;;;;;;26.50;14.23;;;;;;;-4.52;87.56;102485.78;4955591;28;20059;-69
2021/12/22 08:48:02;;;;;;;30.38;14.18;;;;;;;-4.40;86.75;102482.38;4950858;28;20037;-69
2021/12/22 08:50:28;;;;;;;19.52;12.88;;;;;;;-4.28;86.61;102469.59;4971048;28;20109;-69
2021/12/22 08:52:55;;;;;;;21.60;14.25;;;;;;;-4.16;86.49;102480.75;4964461;28;20039;-69
2021/12/22 08:55:21;;;;;;;21.90;13.75;;;;;;;-4.02;86.19;102480.13;4945340;28;20047;-69
2021/12/22 08:57:52;;;;;;;23.70;14.82;;;;;;;-3.86;86.19;102482.13;4940139;28;20046;-69
2021/12/22 09:00:19;;;;;;;20.85;14.85;;;;;;;-3.68;85.42;102489.38;4935599;28;20065;-69
2021/12/22 09:02:45;;;;;;;22.92;14.52;;;;;;;-3.61;84.84;102476.22;4944082;28;20039;-69
2021/12/22 09:05:10;;;;;;;23.52;13.95;;;;;;;-3.51;85.04;102478.66;4938637;28;20069;-69
2021/12/22 09:07:36;;;;;;;19.63;13.13;;;;;;;-3.43;84.53;102478.31;4950613;28;20137;-70
2021/12/22 09:10:02;;;;;;;19.45;13.57;;;;;;;-3.35;84.31;102479.75;4968505;28;20049;-69
2021/12/22 09:12:29;;;;;;;29.85;13.32;;;;;;;-3.21;83.75;102488.44;4973481;28;20084;-70
2021/12/22 09:14:55;;;;;;;20.27;13.07;;;;;;;-3.11;83.82;102479.72;4956094;28;20118;-70
2021/12/22 09:17:20;;;;;;;18.75;12.18;;;;;;;-2.88;83.29;102477.09;4954560;28;20122;-69
2021/12/22 09:19:46;;;;;;;23.95;12.77;;;;;;;-2.59;82.30;102488.47;4959506;28;20106;-70
2021/12/22 09:22:11;;;;;;;22.92;13.27;;;;;;;-1.93;81.93;102481.72;4956549;28;20250;-70
2021/12/22 09:24:36;;;;;;;16.83;11.38;;;;;;;-0.99;80.85;102473.91;4918612;28;20030;-70
2021/12/22 09:27:02;;;;;;;19.20;12.52;;;;;;;-0.04;75.89;102476.16;4949350;28;20037;-70
2021/12/22 09:29:29;;;;;;;31.85;14.57;;;;;;;1.04;73.29;102472.69;4966458;28;20036;-69
2021/12/22 09:31:56;;;;;;;21.73;14.18;;;;;;;2.22;69.40;102473.47;4918177;28;20031;-70
2021/12/22 09:34:21;;;;;;;20.50;12.82;;;;;;;3.15;64.57;102480.38;4950077;28;20067;-70
2021/12/22 09:36:47;;;;;;;20.27;14.15;;;;;;;3.79;62.27;102475.44;4954133;28;20113;-70
2021/12/22 09:39:14;;;;;;;23.17;12.88;;;;;;;4.23;59.84;102469.44;4967221;28;20121;-70
2021/12/22 09:41:40;;;;;;;16.58;11.70;;;;;;;5.12;61.85;102470.25;4982371;28;20031;-70
2021/12/22 09:44:05;;;;;;;22.92;13.27;;;;;;;5.31;55.49;102465.72;4952202;28;20031;-71
2021/12/22 09:46:31;;;;;;;16.90;12.27;;;;;;;4.90;55.17;102467.69;4967542;28;20055;-70
2021/12/22 09:49:07;;;;;;;21.10;11.77;;;;;;;5.11;55.88;102475.41;4932433;28;20081;-70
2021/12/22 09:53:59;;;;;;;17.60;11.90;;;;;;;5.84;53.69;102461.50;4950527;28;20048;-71
2021/12/22 09:56:28;;;;;;;20.25;12.20;;;;;;;6.13;52.88;102456.41;4933541;29;20034;-71
2021/12/22 09:58:54;;;;;;;11.80;10.43;;;;;;;5.94;53.31;102456.63;4979790;28;20552;-70
2021/12/22 10:01:23;;;;;;;21.13;12.35;;;;;;;5.52;53.19;102468.22;4961830;28;20038;-70
2021/12/22 10:03:58;;;;;;;19.00;12.95;;;;;;;5.09;53.96;102458.88;4951700;28;20046;-70
2021/12/22 10:06:25;;;;;;;17.00;11.93;;;;;;;4.76;55.40;102460.25;4950950;28;20466;-70
2021/12/22 10:08:52;;;;;;;16.10;11.35;;;;;;;4.27;55.64;102456.63;4945758;28;20042;-70
2021/12/22 10:11:17;;;;;;;28.83;12.52;;;;;;;4.24;57.58;102460.78;4946486;29;20036;-71
2021/12/22 10:13:46;;;;;;;18.33;11.88;;;;;;;4.42;57.22;102453.75;4945667;28;20506;-70
2021/12/22 10:16:18;;;;;;;20.00;11.07;;;;;;;4.71;55.77;102451.38;4944049;28;20119;-71
2021/12/22 10:18:44;;;;;;;20.25;11.10;;;;;;;4.85;56.56;102446.72;4948694;28;20059;-70
2021/12/22 10:21:13;;;;;;;14.48;11.20;;;;;;;4.85;56.22;102442.41;4984029;28;20462;-71
2021/12/22 10:23:46;;;;;;;20.20;11.70;;;;;;;5.35;56.32;102452.03;4944752;28;20247;-71
2021/12/22 10:26:16;;;;;;;15.10;11.05;;;;;;;5.75;54.42;102458.59;4951881;28;20144;-71
2021/12/22 10:28:52;;;;;;;22.05;11.95;;;;;;;6.19;55.99;102446.22;4949759;28;20035;-71
2021/12/22 10:31:21;;;;;;;23.63;11.27;;;;;;;6.59;54.56;102441.34;4983335;28;20031;-71
2021/12/22 10:33:48;;;;;;;18.05;11.70;;;;;;;6.93;52.18;102448.44;4951509;29;20035;-70
2021/12/22 10:36:18;;;;;;;15.98;12.60;;;;;;;7.14;50.50;102438.59;4935158;29;20169;-74
2021/12/22 10:39:00;;;;;;;22.67;10.98;;;;;;;7.33;52.32;102430.47;4952068;28;20514;-71
2021/12/22 10:41:30;;;;;;;16.75;11.20;;;;;;;7.83;51.24;102435.25;4982213;28;20111;-71
2021/12/22 10:43:56;;;;;;;;;;;;;;;8.60;55.74;102421.38;4948083;28;20053;-71
2021/12/22 10:46:33;;;;;;;20.25;12.82;;;;;;;9.71;48.89;102422.63;4933237;29;19926;-71
2021/12/22 10:49:18;;;;;;;19.33;12.40;;;;;;;10.71;44.37;102413.69;4950311;28;20095;-71
2021/12/22 10:52:00;;;;;;;15.27;11.65;;;;;;;10.65;44.14;102415.38;4950166;28;20480;-71
2021/12/22 10:54:34;;;;;;;20.33;11.15;;;;;;;11.14;44.58;102415.97;4943961;28;20502;-71
2021/12/22 10:57:01;;;;;;;21.58;11.60;;;;;;;10.97;42.30;102407.91;4949121;28;20038;-71
2021/12/22 10:59:27;;;;;;;18.70;11.07;;;;;;;10.91;41.68;102402.59;4946894;28;20503;-74
2021/12/22 11:02:06;;;;;;;15.68;11.27;;;;;;;10.84;41.76;102400.75;4950041;28;20049;-74
2021/12/22 11:04:33;;;;;;;26.08;12.18;;;;;;;11.18;41.57;102391.53;4976435;28;20059;-74
2021/12/22 11:07:14;;;;;;;14.10;10.82;;;;;;;11.75;42.88;102380.66;4962779;28;20123;-74
2021/12/22 11:09:40;;;;;;;25.25;11.88;;;;;;;12.45;39.24;102377.63;4979362;28;20058;-74
2021/12/22 11:12:13;;;;;;;22.70;11.80;;;;;;;13.39;38.36;102387.63;4933694;28;20499;-74
2021/12/22 11:14:41;;;;;;;21.73;11.55;;;;;;;13.94;37.52;102377.97;4955163;28;20027;-75
2021/12/22 11:17:11;;;;;;;13.27;10.77;;;;;;;15.29;36.46;102376.56;4981895;28;20015;-74
2021/12/22 11:20:05;;;;;;;14.70;10.75;;;;;;;16.28;38.56;102381.00;4951729;28;20031;-74
2021/12/22 11:22:47;;;;;;;14.82;11.35;;;;;;;16.81;33.74;102381.25;4950118;28;20058;-74
2021/12/22 11:25:12;;;;;;;14.77;11.02;;;;;;;17.27;31.07;102382.41;4957761;28;20038;-75
2021/12/22 11:27:38;;;;;;;13.30;11.00;;;;;;;17.04;30.15;102383.63;4946086;28;20398;-75
2021/12/22 11:30:05;;;;;;;20.15;10.60;;;;;;;15.91;31.00;102374.31;4952300;28;20038;-74
2021/12/22 11:32:32;;;;;;;15.18;11.43;;;;;;;16.27;32.11;102369.53;4949370;28;20034;-75
2021/12/22 11:35:04;;;;;;;12.43;10.40;;;;;;;17.09;31.26;102370.31;4947951;28;20469;-75